createdAt,value
2023-05-25T00:00:57.432Z,0.00
2023-05-25T00:01:44.319Z,0.00
2023-05-25T00:02:43.243Z,0.00
2023-05-25T00:03:43.123Z,0.00
2023-05-25T00:04:43.112Z,0.00
2023-05-25T00:05:43.212Z,0.00
2023-05-25T00:06:43.005Z,0.00
2023-05-25T00:07:42.964Z,0.00
2023-05-25T00:08:43.011Z,0.00
2023-05-25T00:09:42.990Z,0.00
2023-05-25T00:10:42.941Z,0.00
2023-05-25T00:11:42.925Z,0.00
2023-05-25T00:12:42.920Z,0.00
2023-05-25T00:13:42.951Z,0.00
2023-05-25T00:14:42.886Z,0.00
2023-05-25T00:15:43.046Z,0.00
2023-05-25T00:16:42.894Z,0.00
2023-05-25T00:17:42.877Z,0.00
2023-05-25T00:18:42.887Z,0.00
2023-05-25T00:19:42.830Z,0.00
2023-05-25T00:20:42.887Z,0.00
2023-05-25T00:21:42.809Z,0.00
2023-05-25T00:22:42.835Z,0.00
2023-05-25T00:23:42.833Z,0.00
2023-05-25T00:24:42.776Z,0.00
2023-05-25T00:25:43.058Z,0.00
2023-05-25T00:26:42.734Z,0.00
2023-05-25T00:27:42.780Z,0.00
2023-05-25T00:28:42.741Z,0.00
2023-05-25T00:29:42.694Z,0.00
2023-05-25T00:30:42.736Z,0.00
2023-05-25T00:31:42.700Z,0.00
2023-05-25T00:32:42.769Z,0.00
2023-05-25T00:33:42.669Z,0.00
2023-05-25T00:34:42.681Z,0.00
2023-05-25T00:35:42.925Z,0.00
2023-05-25T00:36:42.699Z,0.00
2023-05-25T00:37:42.722Z,0.00
2023-05-25T00:38:42.617Z,0.00
2023-05-25T00:39:42.633Z,0.00
2023-05-25T00:40:42.611Z,0.00
2023-05-25T00:41:42.640Z,0.00
2023-05-25T00:42:42.583Z,0.00
2023-05-25T00:43:42.557Z,0.00
2023-05-25T00:44:42.563Z,0.00
2023-05-25T00:45:42.829Z,0.00
2023-05-25T00:46:42.671Z,0.00
2023-05-25T00:47:42.552Z,0.00
2023-05-25T00:48:42.527Z,0.00
2023-05-25T00:49:42.508Z,0.00
2023-05-25T00:50:42.555Z,0.00
2023-05-25T00:51:42.533Z,0.00
2023-05-25T00:52:42.502Z,0.00
2023-05-25T00:53:42.454Z,0.00
2023-05-25T00:54:42.458Z,0.00
2023-05-25T00:55:42.614Z,0.00
2023-05-25T00:56:42.411Z,0.00
2023-05-25T00:57:42.402Z,0.00
2023-05-25T00:58:42.398Z,0.00
2023-05-25T00:59:42.390Z,0.00
2023-05-25T01:00:42.453Z,0.00
2023-05-25T01:01:42.373Z,0.00
2023-05-25T01:02:42.477Z,0.00
2023-05-25T01:03:42.402Z,0.00
2023-05-25T01:04:42.385Z,0.00
2023-05-25T01:05:42.576Z,0.00
2023-05-25T01:06:42.335Z,0.00
2023-05-25T01:07:42.307Z,0.00
2023-05-25T01:08:42.305Z,0.00
2023-05-25T01:09:42.329Z,0.00
2023-05-25T01:10:42.269Z,0.00
2023-05-25T01:11:42.249Z,0.00
2023-05-25T01:12:42.246Z,0.00
2023-05-25T01:13:42.240Z,0.00
2023-05-25T01:14:42.271Z,0.00
2023-05-25T01:15:42.426Z,0.00
2023-05-25T01:16:42.221Z,0.00
2023-05-25T01:17:42.199Z,0.00
2023-05-25T01:18:42.266Z,0.00
2023-05-25T01:19:42.215Z,0.00
2023-05-25T01:20:42.198Z,0.00
2023-05-25T01:21:42.270Z,0.00
2023-05-25T01:22:42.145Z,0.00
2023-05-25T01:23:42.144Z,0.00
2023-05-25T01:24:42.085Z,0.00
2023-05-25T01:25:42.297Z,0.00
2023-05-25T01:26:42.112Z,0.00
2023-05-25T01:27:42.115Z,0.00
2023-05-25T01:28:42.115Z,0.00
2023-05-25T01:29:42.065Z,0.00
2023-05-25T01:30:42.045Z,0.00
2023-05-25T01:31:42.064Z,0.00
2023-05-25T01:32:42.103Z,0.00
2023-05-25T01:33:42.004Z,0.00
2023-05-25T01:34:42.026Z,0.00
2023-05-25T01:35:42.224Z,0.00
2023-05-25T01:36:41.978Z,0.00
2023-05-25T01:37:42.027Z,0.00
2023-05-25T01:38:41.964Z,0.00
2023-05-25T01:39:41.934Z,0.00
2023-05-25T01:40:41.922Z,0.00
2023-05-25T01:41:41.907Z,0.00
2023-05-25T01:42:41.936Z,0.00
2023-05-25T01:43:41.899Z,0.00
2023-05-25T01:44:41.887Z,0.00
2023-05-25T01:45:42.048Z,0.00
2023-05-25T01:46:41.877Z,0.00
2023-05-25T01:47:41.907Z,0.00
2023-05-25T01:48:41.822Z,0.00
2023-05-25T01:49:41.806Z,0.00
2023-05-25T01:50:41.813Z,0.00
2023-05-25T01:51:41.889Z,0.00
2023-05-25T01:52:41.824Z,0.00
2023-05-25T01:53:41.757Z,0.00
2023-05-25T01:54:41.771Z,0.00
2023-05-25T01:55:41.842Z,0.00
2023-05-25T01:56:41.803Z,0.00
2023-05-25T01:57:41.731Z,0.00
2023-05-25T01:58:41.714Z,0.00
2023-05-25T01:59:41.688Z,0.00
2023-05-25T02:00:41.729Z,0.00
2023-05-25T02:01:41.769Z,0.00
2023-05-25T02:02:41.703Z,0.00
2023-05-25T02:03:41.698Z,0.00
2023-05-25T02:04:41.750Z,0.00
2023-05-25T02:05:41.962Z,0.00
2023-05-25T02:06:41.664Z,0.00
2023-05-25T02:07:41.621Z,0.00
2023-05-25T02:08:41.609Z,0.00
2023-05-25T02:09:41.584Z,0.00
2023-05-25T02:10:41.624Z,0.00
2023-05-25T02:11:41.572Z,0.00
2023-05-25T02:12:41.549Z,0.00
2023-05-25T02:13:41.563Z,0.00
2023-05-25T02:14:41.536Z,0.00
2023-05-25T02:15:41.750Z,0.00
2023-05-25T02:16:41.512Z,0.00
2023-05-25T02:17:41.569Z,0.00
2023-05-25T02:18:41.500Z,0.00
2023-05-25T02:19:41.536Z,0.00
2023-05-25T02:20:41.531Z,0.00
2023-05-25T02:21:41.453Z,0.00
2023-05-25T02:22:41.440Z,0.00
2023-05-25T02:23:41.434Z,0.00
2023-05-25T02:24:41.470Z,0.00
2023-05-25T02:25:41.504Z,0.00
2023-05-25T02:26:41.412Z,0.00
2023-05-25T02:27:41.382Z,0.00
2023-05-25T02:28:41.371Z,0.00
2023-05-25T02:29:41.415Z,0.00
2023-05-25T02:30:41.375Z,0.00
2023-05-25T02:31:41.377Z,0.00
2023-05-25T02:32:41.354Z,0.00
2023-05-25T02:33:41.339Z,0.00
2023-05-25T02:34:41.371Z,0.00
2023-05-25T02:35:41.437Z,0.00
2023-05-25T02:36:41.287Z,0.00
2023-05-25T02:37:41.283Z,0.00
2023-05-25T02:38:41.304Z,0.00
2023-05-25T02:39:41.324Z,0.00
2023-05-25T02:40:41.249Z,0.00
2023-05-25T02:41:41.236Z,0.00
2023-05-25T02:42:41.264Z,0.00
2023-05-25T02:43:41.281Z,5.62
2023-05-25T02:44:41.199Z,5.62
2023-05-25T02:45:41.312Z,5.62
2023-05-25T02:46:41.245Z,5.62
2023-05-25T02:47:41.208Z,5.62
2023-05-25T02:48:41.212Z,5.62
2023-05-25T02:49:41.134Z,5.62
2023-05-25T02:50:41.113Z,5.62
2023-05-25T02:51:41.112Z,11.25
2023-05-25T02:52:41.145Z,11.25
2023-05-25T02:53:41.156Z,11.25
2023-05-25T02:54:41.104Z,11.25
2023-05-25T02:55:41.094Z,11.25
2023-05-25T02:56:41.074Z,16.88
2023-05-25T02:57:41.107Z,16.88
2023-05-25T02:58:41.055Z,16.88
2023-05-25T02:59:41.065Z,16.88
2023-05-25T03:00:41.032Z,22.50
2023-05-25T03:01:41.025Z,22.50
2023-05-25T03:02:41.076Z,22.50
2023-05-25T03:03:41.046Z,28.12
2023-05-25T03:04:40.976Z,28.12
2023-05-25T03:05:41.004Z,28.12
2023-05-25T03:06:40.974Z,33.75
2023-05-25T03:07:40.997Z,33.75
2023-05-25T03:08:40.922Z,39.38
2023-05-25T03:09:40.925Z,39.38
2023-05-25T03:10:40.900Z,45.00
2023-05-25T03:11:40.960Z,45.00
2023-05-25T03:12:40.954Z,45.00
2023-05-25T03:13:40.879Z,50.62
2023-05-25T03:14:40.866Z,50.62
2023-05-25T03:15:40.865Z,56.25
2023-05-25T03:16:40.959Z,56.25
2023-05-25T03:17:40.872Z,61.88
2023-05-25T03:18:40.795Z,61.88
2023-05-25T03:19:40.841Z,67.50
2023-05-25T03:20:40.828Z,67.50
2023-05-25T03:21:40.841Z,73.12
2023-05-25T03:22:40.772Z,73.12
2023-05-25T03:23:40.778Z,78.75
2023-05-25T03:24:40.747Z,84.38
2023-05-25T03:25:40.739Z,84.38
2023-05-25T03:26:40.762Z,90.00
2023-05-25T03:27:40.703Z,90.00
2023-05-25T03:28:40.708Z,95.62
2023-05-25T03:29:40.700Z,101.25
2023-05-25T03:30:40.728Z,101.25
2023-05-25T03:31:40.821Z,106.88
2023-05-25T03:32:40.673Z,106.88
2023-05-25T03:33:40.662Z,106.88
2023-05-25T03:34:40.648Z,112.50
2023-05-25T03:35:40.678Z,112.50
2023-05-25T03:36:40.608Z,118.12
2023-05-25T03:37:40.630Z,123.75
2023-05-25T03:38:40.602Z,123.75
2023-05-25T03:39:40.636Z,129.38
2023-05-25T03:40:40.624Z,135.00
2023-05-25T03:41:40.567Z,135.00
2023-05-25T03:42:40.562Z,140.62
2023-05-25T03:43:40.541Z,140.62
2023-05-25T03:44:41.353Z,146.25
2023-05-25T03:45:40.521Z,151.88
2023-05-25T03:46:40.561Z,151.88
2023-05-25T03:47:40.504Z,157.50
2023-05-25T03:48:40.471Z,163.12
2023-05-25T03:49:40.519Z,163.12
2023-05-25T03:50:40.456Z,168.75
2023-05-25T03:51:40.465Z,168.75
2023-05-25T03:52:40.457Z,174.38
2023-05-25T03:53:40.437Z,180.00
2023-05-25T03:54:40.482Z,180.00
2023-05-25T03:55:40.423Z,185.62
2023-05-25T03:56:40.403Z,185.62
2023-05-25T03:57:40.382Z,191.25
2023-05-25T03:58:40.403Z,196.88
2023-05-25T03:59:40.418Z,202.50
2023-05-25T04:00:40.343Z,202.50
2023-05-25T04:01:40.355Z,208.12
2023-05-25T04:02:40.429Z,208.12
2023-05-25T04:03:40.488Z,213.75
2023-05-25T04:04:40.372Z,213.75
2023-05-25T04:05:40.331Z,219.38
2023-05-25T04:06:40.287Z,236.25
2023-05-25T04:07:40.261Z,275.62
2023-05-25T04:08:40.318Z,292.50
2023-05-25T04:09:40.264Z,298.12
2023-05-25T04:10:40.272Z,303.75
2023-05-25T04:11:40.233Z,309.38
2023-05-25T04:12:40.248Z,315.00
2023-05-25T04:13:40.262Z,320.62
2023-05-25T04:14:40.200Z,326.25
2023-05-25T04:15:40.158Z,331.88
2023-05-25T04:16:40.178Z,337.50
2023-05-25T04:17:40.206Z,343.12
2023-05-25T04:18:40.160Z,348.75
2023-05-25T04:19:40.141Z,354.38
2023-05-25T04:20:40.156Z,365.62
2023-05-25T04:21:40.120Z,371.25
2023-05-25T04:22:40.152Z,376.88
2023-05-25T04:23:40.093Z,388.12
2023-05-25T04:24:40.073Z,388.12
2023-05-25T04:25:40.078Z,393.75
2023-05-25T04:26:40.110Z,405.00
2023-05-25T04:27:40.095Z,410.62
2023-05-25T04:28:40.026Z,421.88
2023-05-25T04:29:40.035Z,427.50
2023-05-25T04:30:40.009Z,438.75
2023-05-25T04:31:40.084Z,450.00
2023-05-25T04:32:40.079Z,461.25
2023-05-25T04:33:39.974Z,466.88
2023-05-25T04:34:39.947Z,472.50
2023-05-25T04:35:40.000Z,483.75
2023-05-25T04:36:39.988Z,500.62
2023-05-25T04:37:39.954Z,517.50
2023-05-25T04:38:39.919Z,523.12
2023-05-25T04:39:39.922Z,540.00
2023-05-25T04:40:39.944Z,562.50
2023-05-25T04:41:39.884Z,556.88
2023-05-25T04:42:39.910Z,551.25
2023-05-25T04:43:46.550Z,551.25
2023-05-25T04:44:40.871Z,551.25
2023-05-25T04:45:39.922Z,551.25
2023-05-25T04:46:39.830Z,551.25
2023-05-25T04:47:39.859Z,556.88
2023-05-25T04:48:39.787Z,562.50
2023-05-25T04:49:39.832Z,568.12
2023-05-25T04:50:39.827Z,579.38
2023-05-25T04:51:39.791Z,585.00
2023-05-25T04:52:39.751Z,590.62
2023-05-25T04:53:39.745Z,596.25
2023-05-25T04:54:39.775Z,596.25
2023-05-25T04:55:39.746Z,607.50
2023-05-25T04:56:39.703Z,607.50
2023-05-25T04:57:39.698Z,607.50
2023-05-25T04:58:39.694Z,613.12
2023-05-25T04:59:39.744Z,613.12
2023-05-25T05:00:39.672Z,607.50
2023-05-25T05:01:39.692Z,596.25
2023-05-25T05:02:39.696Z,585.00
2023-05-25T05:03:39.720Z,579.38
2023-05-25T05:04:39.669Z,556.88
2023-05-25T05:05:39.612Z,545.62
2023-05-25T05:06:39.628Z,528.75
2023-05-25T05:07:39.593Z,511.88
2023-05-25T05:08:39.642Z,506.25
2023-05-25T05:09:39.597Z,500.62
2023-05-25T05:10:39.529Z,495.00
2023-05-25T05:11:39.529Z,500.62
2023-05-25T05:12:39.513Z,489.38
2023-05-25T05:13:39.553Z,483.75
2023-05-25T05:14:39.519Z,478.12
2023-05-25T05:15:39.488Z,478.12
2023-05-25T05:16:39.531Z,472.50
2023-05-25T05:17:39.649Z,472.50
2023-05-25T05:18:39.520Z,472.50
2023-05-25T05:19:39.466Z,472.50
2023-05-25T05:20:39.506Z,466.88
2023-05-25T05:21:39.426Z,455.62
2023-05-25T05:22:39.523Z,450.00
2023-05-25T05:23:39.454Z,444.38
2023-05-25T05:24:39.407Z,444.38
2023-05-25T05:25:39.390Z,444.38
2023-05-25T05:26:55.600Z,438.75
2023-05-25T05:27:40.411Z,438.75
2023-05-25T05:28:39.353Z,438.75
2023-05-25T05:29:39.348Z,438.75
2023-05-25T05:30:39.335Z,438.75
2023-05-25T05:31:39.446Z,438.75
2023-05-25T05:32:39.363Z,438.75
2023-05-25T05:33:39.404Z,438.75
2023-05-25T05:34:39.271Z,438.75
2023-05-25T05:35:39.313Z,438.75
2023-05-25T05:36:53.082Z,444.38
2023-05-25T05:37:40.251Z,444.38
2023-05-25T05:38:40.034Z,444.38
2023-05-25T05:39:39.212Z,444.38
2023-05-25T05:40:39.210Z,438.75
2023-05-25T05:41:39.236Z,438.75
2023-05-25T05:42:39.180Z,438.75
2023-05-25T05:43:39.171Z,438.75
2023-05-25T05:44:39.167Z,438.75
2023-05-25T05:45:39.207Z,438.75
2023-05-25T05:46:39.239Z,438.75
2023-05-25T05:47:39.175Z,438.75
2023-05-25T05:48:39.108Z,444.38
2023-05-25T05:49:39.119Z,444.38
2023-05-25T05:50:41.748Z,444.38
2023-05-25T05:51:39.071Z,444.38
2023-05-25T05:52:39.076Z,450.00
2023-05-25T05:53:39.081Z,444.38
2023-05-25T05:54:39.059Z,450.00
2023-05-25T05:55:39.110Z,455.62
2023-05-25T05:56:39.041Z,455.62
2023-05-25T05:57:39.019Z,455.62
2023-05-25T05:58:39.018Z,455.62
2023-05-25T05:59:39.063Z,455.62
2023-05-25T06:00:39.050Z,455.62
2023-05-25T06:01:38.986Z,455.62
2023-05-25T06:02:41.386Z,455.62
2023-05-25T06:03:38.960Z,455.62
2023-05-25T06:04:39.031Z,455.62
2023-05-25T06:05:38.992Z,455.62
2023-05-25T06:06:38.907Z,455.62
2023-05-25T06:07:38.921Z,455.62
2023-05-25T06:08:38.878Z,455.62
2023-05-25T06:09:38.919Z,455.62
2023-05-25T06:10:38.891Z,461.25
2023-05-25T06:11:38.881Z,461.25
2023-05-25T06:12:38.863Z,461.25
2023-05-25T06:13:38.870Z,461.25
2023-05-25T06:14:38.861Z,461.25
2023-05-25T06:15:38.817Z,461.25
2023-05-25T06:16:38.869Z,461.25
2023-05-25T06:17:38.831Z,466.88
2023-05-25T06:18:38.843Z,466.88
2023-05-25T06:19:38.807Z,466.88
2023-05-25T06:20:38.792Z,466.88
2023-05-25T06:21:38.755Z,466.88
2023-05-25T06:22:38.742Z,472.50
2023-05-25T06:23:38.758Z,472.50
2023-05-25T06:24:38.711Z,472.50
2023-05-25T06:25:38.732Z,472.50
2023-05-25T06:26:38.698Z,483.75
2023-05-25T06:27:38.740Z,483.75
2023-05-25T06:28:38.717Z,483.75
2023-05-25T06:29:38.659Z,483.75
2023-05-25T06:30:38.689Z,483.75
2023-05-25T06:31:38.667Z,489.38
2023-05-25T06:32:38.717Z,489.38
2023-05-25T06:33:38.651Z,489.38
2023-05-25T06:34:38.605Z,489.38
2023-05-25T06:35:38.575Z,489.38
2023-05-25T06:36:38.573Z,489.38
2023-05-25T06:37:38.642Z,495.00
2023-05-25T06:38:38.582Z,495.00
2023-05-25T06:39:38.562Z,495.00
2023-05-25T06:40:38.521Z,500.62
2023-05-25T06:41:38.596Z,500.62
2023-05-25T06:42:38.561Z,500.62
2023-05-25T06:43:38.514Z,500.62
2023-05-25T06:44:38.560Z,500.62
2023-05-25T06:45:38.484Z,506.25
2023-05-25T06:46:38.590Z,506.25
2023-05-25T06:47:39.128Z,506.25
2023-05-25T06:48:38.452Z,511.88
2023-05-25T06:49:38.450Z,511.88
2023-05-25T06:50:38.457Z,511.88
2023-05-25T06:51:38.469Z,517.50
2023-05-25T06:52:38.391Z,517.50
2023-05-25T06:53:38.389Z,523.12
2023-05-25T06:54:38.712Z,523.12
2023-05-25T06:55:38.419Z,528.75
2023-05-25T06:56:38.413Z,528.75
2023-05-25T06:57:38.352Z,534.38
2023-05-25T06:58:38.333Z,534.38
2023-05-25T06:59:38.351Z,540.00
2023-05-25T07:00:38.388Z,540.00
2023-05-25T07:01:38.364Z,545.62
2023-05-25T07:02:38.326Z,545.62
2023-05-25T07:03:38.275Z,551.25
2023-05-25T07:04:38.310Z,551.25
2023-05-25T07:05:38.308Z,551.25
2023-05-25T07:06:38.254Z,556.88
2023-05-25T07:07:38.222Z,556.88
2023-05-25T07:08:38.222Z,562.50
2023-05-25T07:09:38.257Z,562.50
2023-05-25T07:10:38.248Z,568.12
2023-05-25T07:11:38.194Z,573.75
2023-05-25T07:12:38.169Z,573.75
2023-05-25T07:13:38.145Z,579.38
2023-05-25T07:14:38.204Z,579.38
2023-05-25T07:15:38.146Z,585.00
2023-05-25T07:16:38.215Z,585.00
2023-05-25T07:17:38.153Z,590.62
2023-05-25T07:18:38.126Z,596.25
2023-05-25T07:19:38.149Z,601.88
2023-05-25T07:20:38.245Z,607.50
2023-05-25T07:21:38.090Z,613.12
2023-05-25T07:22:38.065Z,613.12
2023-05-25T07:23:38.113Z,618.75
2023-05-25T07:24:38.116Z,624.38
2023-05-25T07:25:38.090Z,630.00
2023-05-25T07:26:38.048Z,635.62
2023-05-25T07:27:38.039Z,635.62
2023-05-25T07:28:38.065Z,641.25
2023-05-25T07:29:37.999Z,646.88
2023-05-25T07:30:37.986Z,652.50
2023-05-25T07:31:37.985Z,663.75
2023-05-25T07:32:38.002Z,675.00
2023-05-25T07:33:38.007Z,691.88
2023-05-25T07:34:37.980Z,714.38
2023-05-25T07:35:37.937Z,731.25
2023-05-25T07:36:37.927Z,748.12
2023-05-25T07:37:37.979Z,776.25
2023-05-25T07:38:37.958Z,804.38
2023-05-25T07:39:37.879Z,855.00
2023-05-25T07:40:37.900Z,961.88
2023-05-25T07:41:37.881Z,1057.50
2023-05-25T07:42:37.949Z,1136.25
2023-05-25T07:43:37.837Z,1265.62
2023-05-25T07:44:37.829Z,1456.88
2023-05-25T07:45:37.834Z,1603.12
2023-05-25T07:46:37.838Z,1721.25
2023-05-25T07:47:37.979Z,1805.62
2023-05-25T07:48:37.795Z,1867.50
2023-05-25T07:49:37.793Z,1923.75
2023-05-25T07:50:37.768Z,1974.38
2023-05-25T07:51:37.828Z,2041.88
2023-05-25T07:52:37.796Z,2092.50
2023-05-25T07:53:37.828Z,2160.00
2023-05-25T07:54:37.798Z,2233.12
2023-05-25T07:55:37.710Z,2283.75
2023-05-25T07:56:37.739Z,2340.00
2023-05-25T07:57:37.715Z,2390.62
2023-05-25T07:58:37.653Z,2407.50
2023-05-25T07:59:37.627Z,2452.50
2023-05-25T08:00:37.684Z,2553.75
2023-05-25T08:01:37.704Z,2671.88
2023-05-25T08:02:37.854Z,2750.62
2023-05-25T08:03:48.923Z,2739.38
2023-05-25T08:04:38.788Z,2694.38
2023-05-25T08:05:37.685Z,2705.62
2023-05-25T08:06:37.638Z,2761.88
2023-05-25T08:07:38.283Z,2885.62
2023-05-25T08:08:37.551Z,2801.25
2023-05-25T08:09:37.583Z,753.75
2023-05-25T08:10:37.658Z,2221.88
2023-05-25T08:11:37.561Z,2767.50
2023-05-25T08:12:47.058Z,3211.88
2023-05-25T08:13:38.539Z,3273.75
2023-05-25T08:14:37.528Z,3301.88
2023-05-25T08:15:37.516Z,3341.25
2023-05-25T08:16:37.492Z,3375.00
2023-05-25T08:17:37.499Z,3352.50
2023-05-25T08:18:37.478Z,3279.38
2023-05-25T08:19:37.487Z,3150.00
2023-05-25T08:20:37.535Z,3093.75
2023-05-25T08:21:37.431Z,3088.12
2023-05-25T08:22:37.411Z,3065.62
2023-05-25T08:23:37.401Z,3048.75
2023-05-25T08:24:37.479Z,3048.75
2023-05-25T08:25:37.390Z,3043.12
2023-05-25T08:26:53.141Z,3093.75
2023-05-25T08:27:38.354Z,3116.25
2023-05-25T08:28:37.334Z,2503.12
2023-05-25T08:29:37.358Z,2390.62
2023-05-25T08:30:37.332Z,2458.12
2023-05-25T08:31:37.423Z,3127.50
2023-05-25T08:32:37.325Z,3217.50
2023-05-25T08:33:37.341Z,3301.88
2023-05-25T08:34:37.305Z,3391.88
2023-05-25T08:35:37.248Z,2115.00
2023-05-25T08:36:37.254Z,1147.50
2023-05-25T08:37:37.241Z,939.38
2023-05-25T08:38:37.278Z,883.12
2023-05-25T08:39:37.239Z,883.12
2023-05-25T08:40:37.221Z,1018.12
2023-05-25T08:41:37.202Z,1096.88
2023-05-25T08:42:37.198Z,1209.38
2023-05-25T08:43:37.214Z,2401.88
2023-05-25T08:44:37.166Z,4443.75
2023-05-25T08:45:40.564Z,1597.50
2023-05-25T08:46:38.137Z,4561.88
2023-05-25T08:47:37.182Z,4365.00
2023-05-25T08:48:41.507Z,4539.38
2023-05-25T08:49:38.147Z,4950.00
2023-05-25T08:50:37.116Z,4758.75
2023-05-25T08:51:37.123Z,4606.88
2023-05-25T08:52:37.144Z,4792.50
2023-05-25T08:53:37.066Z,1569.38
2023-05-25T08:54:37.025Z,1411.88
2023-05-25T08:55:37.036Z,1440.00
2023-05-25T08:56:37.188Z,1417.50
2023-05-25T08:57:37.052Z,1406.25
2023-05-25T08:58:37.012Z,1665.00
2023-05-25T08:59:37.021Z,4297.50
2023-05-25T09:00:36.988Z,1344.38
2023-05-25T09:01:37.048Z,1181.25
2023-05-25T09:02:37.087Z,1181.25
2023-05-25T09:03:37.070Z,1198.12
2023-05-25T09:04:36.963Z,1203.75
2023-05-25T09:05:38.182Z,1282.50
2023-05-25T09:06:37.000Z,2812.50
2023-05-25T09:07:36.952Z,1141.88
2023-05-25T09:08:36.899Z,1085.62
2023-05-25T09:09:36.880Z,990.00
2023-05-25T09:10:36.928Z,973.12
2023-05-25T09:11:40.400Z,1074.38
2023-05-25T09:12:36.867Z,4095.00
2023-05-25T09:13:36.838Z,4010.62
2023-05-25T09:14:36.837Z,3892.50
2023-05-25T09:15:36.877Z,3971.25
2023-05-25T09:16:36.878Z,4016.25
2023-05-25T09:17:38.290Z,3971.25
2023-05-25T09:18:36.843Z,4038.75
2023-05-25T09:19:36.771Z,4134.38
2023-05-25T09:20:36.950Z,1558.12
2023-05-25T09:21:36.781Z,3886.88
2023-05-25T09:22:36.752Z,3751.88
2023-05-25T09:23:36.715Z,3650.62
2023-05-25T09:24:36.713Z,1929.38
2023-05-25T09:25:36.746Z,1203.75
2023-05-25T09:26:36.732Z,1080.00
2023-05-25T09:27:36.737Z,945.00
2023-05-25T09:28:36.703Z,826.88
2023-05-25T09:29:36.740Z,787.50
2023-05-25T09:30:36.764Z,765.00
2023-05-25T09:31:36.662Z,748.12
2023-05-25T09:32:36.671Z,781.88
2023-05-25T09:33:37.235Z,849.38
2023-05-25T09:34:36.694Z,2092.50
2023-05-25T09:35:36.623Z,3414.38
2023-05-25T09:36:36.678Z,3403.12
2023-05-25T09:37:36.709Z,3431.25
2023-05-25T09:38:36.755Z,3453.75
2023-05-25T09:39:36.825Z,3436.88
2023-05-25T09:40:36.589Z,3543.75
2023-05-25T09:41:36.557Z,3639.38
2023-05-25T09:42:36.576Z,3785.62
2023-05-25T09:43:44.508Z,3813.75
2023-05-25T09:44:37.578Z,3847.50
2023-05-25T09:45:38.187Z,3909.38
2023-05-25T09:46:36.569Z,2913.75
2023-05-25T09:47:36.587Z,1423.12
2023-05-25T09:48:36.516Z,1366.88
2023-05-25T09:49:36.451Z,1524.38
2023-05-25T09:50:36.431Z,1299.38
2023-05-25T09:51:36.425Z,1254.38
2023-05-25T09:52:36.435Z,1209.38
2023-05-25T09:53:36.474Z,1186.88
2023-05-25T09:54:36.417Z,1170.00
2023-05-25T09:55:51.336Z,1158.75
2023-05-25T09:56:37.395Z,1130.62
2023-05-25T09:57:36.400Z,1125.00
2023-05-25T09:58:36.471Z,1119.38
2023-05-25T09:59:36.359Z,1113.75
2023-05-25T10:00:36.348Z,1136.25
2023-05-25T10:01:36.376Z,1136.25
2023-05-25T10:02:36.411Z,1136.25
2023-05-25T10:03:36.321Z,1147.50
2023-05-25T10:04:36.347Z,1164.38
2023-05-25T10:05:36.261Z,1215.00
2023-05-25T10:06:36.292Z,1293.75
2023-05-25T10:07:36.293Z,2002.50
2023-05-25T10:08:36.258Z,3909.38
2023-05-25T10:09:36.236Z,4021.88
2023-05-25T10:10:36.252Z,4033.12
2023-05-25T10:11:36.319Z,4061.25
2023-05-25T10:12:36.285Z,3712.50
2023-05-25T10:13:36.193Z,1383.75
2023-05-25T10:14:36.214Z,1282.50
2023-05-25T10:15:36.204Z,1260.00
2023-05-25T10:16:36.309Z,1338.75
2023-05-25T10:17:36.175Z,1963.12
2023-05-25T10:18:36.148Z,4066.88
2023-05-25T10:19:36.156Z,4027.50
2023-05-25T10:20:36.170Z,4016.25
2023-05-25T10:21:36.171Z,3988.12
2023-05-25T10:22:36.109Z,3960.00
2023-05-25T10:23:36.096Z,3954.38
2023-05-25T10:24:36.110Z,3909.38
2023-05-25T10:25:36.144Z,3920.62
2023-05-25T10:26:36.122Z,3999.38
2023-05-25T10:27:36.088Z,1665.00
2023-05-25T10:28:36.044Z,1406.25
2023-05-25T10:29:36.030Z,1389.38
2023-05-25T10:30:36.084Z,3093.75
2023-05-25T10:31:36.014Z,3931.88
2023-05-25T10:32:36.029Z,3926.25
2023-05-25T10:33:36.020Z,3937.50
2023-05-25T10:34:35.984Z,3870.00
2023-05-25T10:35:42.483Z,3763.12
2023-05-25T10:36:36.979Z,2283.75
2023-05-25T10:37:35.932Z,1226.25
2023-05-25T10:38:35.920Z,1108.12
2023-05-25T10:39:35.962Z,1051.88
2023-05-25T10:40:35.949Z,1040.62
2023-05-25T10:41:35.902Z,3183.75
2023-05-25T10:42:35.909Z,3690.00
2023-05-25T10:43:35.872Z,3701.25
2023-05-25T10:44:35.898Z,3690.00
2023-05-25T10:45:35.838Z,3628.12
2023-05-25T10:46:35.877Z,3633.75
2023-05-25T10:47:35.847Z,3650.62
2023-05-25T10:48:35.823Z,3712.50
2023-05-25T10:49:35.870Z,3791.25
2023-05-25T10:50:35.819Z,3875.62
2023-05-25T10:51:35.808Z,3948.75
2023-05-25T10:52:35.792Z,3988.12
2023-05-25T10:53:35.829Z,4038.75
2023-05-25T10:54:35.812Z,4151.25
2023-05-25T10:55:35.798Z,4241.25
2023-05-25T10:56:35.836Z,4297.50
2023-05-25T10:57:35.774Z,4275.00
2023-05-25T10:58:35.791Z,4263.75
2023-05-25T10:59:35.756Z,4218.75
2023-05-25T11:00:35.794Z,3960.00
2023-05-25T11:01:35.769Z,1350.00
2023-05-25T11:02:35.682Z,1170.00
2023-05-25T11:03:35.731Z,1108.12
2023-05-25T11:04:35.713Z,1153.12
2023-05-25T11:05:35.669Z,3886.88
2023-05-25T11:06:35.612Z,3903.75
2023-05-25T11:07:35.680Z,3825.00
2023-05-25T11:08:35.682Z,3808.12
2023-05-25T11:09:35.631Z,3830.62
2023-05-25T11:10:35.644Z,3847.50
2023-05-25T11:11:35.581Z,3836.25
2023-05-25T11:12:35.667Z,3819.38
2023-05-25T11:13:37.754Z,3841.88
2023-05-25T11:14:35.560Z,3858.75
2023-05-25T11:15:35.563Z,3898.12
2023-05-25T11:16:35.594Z,3926.25
2023-05-25T11:17:36.153Z,3971.25
2023-05-25T11:18:35.537Z,3993.75
2023-05-25T11:19:35.532Z,4050.00
2023-05-25T11:20:35.551Z,4089.38
2023-05-25T11:21:35.501Z,4162.50
2023-05-25T11:22:35.530Z,4258.12
2023-05-25T11:23:35.467Z,4370.62
2023-05-25T11:24:35.509Z,4415.62
2023-05-25T11:25:36.965Z,4528.12
2023-05-25T11:26:35.838Z,4623.75
2023-05-25T11:27:35.559Z,4691.25
2023-05-25T11:28:35.740Z,4820.62
2023-05-25T11:29:35.977Z,5000.62
2023-05-25T11:30:35.762Z,4899.38
2023-05-25T11:31:40.590Z,4888.12
2023-05-25T11:32:36.734Z,4888.12
2023-05-25T11:33:35.540Z,4950.00
2023-05-25T11:34:36.625Z,5040.00
2023-05-25T11:35:37.755Z,5045.62
2023-05-25T11:36:36.777Z,5056.88
2023-05-25T11:37:36.130Z,4342.50
2023-05-25T11:38:35.507Z,5141.25
2023-05-25T11:39:37.036Z,4798.12
2023-05-25T11:40:39.331Z,4798.12
2023-05-25T11:41:35.537Z,4764.38
2023-05-25T11:42:36.058Z,4798.12
2023-05-25T11:43:38.574Z,4741.88
2023-05-25T11:44:37.577Z,4736.25
2023-05-25T11:45:35.549Z,4708.12
2023-05-25T11:46:37.329Z,4590.00
2023-05-25T11:47:35.989Z,4713.75
2023-05-25T11:48:35.411Z,4820.62
2023-05-25T11:49:36.357Z,4860.00
2023-05-25T11:50:49.635Z,5079.38
2023-05-25T11:51:35.350Z,5169.38
2023-05-25T11:52:36.815Z,1732.50
2023-05-25T11:53:35.432Z,2958.75
2023-05-25T11:54:36.316Z,2986.88
2023-05-25T11:55:35.412Z,5400.00
2023-05-25T11:56:36.193Z,5355.00
2023-05-25T11:57:35.318Z,4950.00
2023-05-25T11:58:36.638Z,3313.12
2023-05-25T11:59:36.654Z,3898.12
2023-05-25T12:00:38.718Z,2435.62
2023-05-25T12:01:35.551Z,2261.25
2023-05-25T12:02:35.425Z,5281.88
2023-05-25T12:03:35.606Z,5096.25
2023-05-25T12:04:35.537Z,4533.75
2023-05-25T12:05:35.490Z,5231.25
2023-05-25T12:06:35.755Z,3813.75
2023-05-25T12:07:35.439Z,4938.75
2023-05-25T12:08:35.519Z,2379.38
2023-05-25T12:09:35.523Z,2975.62
2023-05-25T12:10:35.450Z,5011.88
2023-05-25T12:11:35.220Z,5090.62
2023-05-25T12:12:35.263Z,5332.50
2023-05-25T12:13:36.425Z,4151.25
2023-05-25T12:14:35.400Z,4123.12
2023-05-25T12:15:36.438Z,5360.62
2023-05-25T12:16:36.423Z,5315.62
2023-05-25T12:17:35.282Z,5236.88
2023-05-25T12:18:35.540Z,1631.25
2023-05-25T12:19:36.311Z,1440.00
2023-05-25T12:20:35.984Z,1428.75
2023-05-25T12:21:37.089Z,1428.75
2023-05-25T12:22:34.931Z,1456.88
2023-05-25T12:23:35.576Z,1923.75
2023-05-25T12:24:34.837Z,5501.25
2023-05-25T12:25:46.516Z,5371.88
2023-05-25T12:26:35.849Z,5338.12
2023-05-25T12:27:34.870Z,5011.88
2023-05-25T12:28:34.814Z,5456.25
2023-05-25T12:29:34.832Z,1878.75
2023-05-25T12:30:35.734Z,2536.88
2023-05-25T12:31:34.794Z,2098.12